Time;durP1;ratioP1;P1;durP2;ratioP2;P2;SDS_P1;SDS_P2;PMS_P1;PMS_P2;Temp;Humidity;BMP_temperature;BMP_pressure;BME280_temperature;BME280_humidity;BME280_pressure;Samples;Min_cycle;Max_cycle;Signal;HPM_P1;HPM_P2
2021/12/08 00:00:28;;;;;;;11.73;4.35;;;2.80;99.90;;;;;;5049338;28;20106;-60
2021/12/08 00:02:55;;;;;;;12.07;3.80;;;2.70;99.90;;;;;;5035231;28;20579;-60
2021/12/08 00:05:23;;;;;;;8.75;4.30;;;2.70;99.90;;;;;;5027773;28;20045;-61
2021/12/08 00:07:50;;;;;;;11.85;4.55;;;2.60;99.90;;;;;;5034381;28;20068;-60
2021/12/08 00:10:50;;;;;;;8.13;4.00;;;2.60;99.90;;;;;;5047246;28;20710;-61
2021/12/08 00:13:09;;;;;;;16.13;4.70;;;2.60;99.90;;;;;;5046131;28;20139;-60
2021/12/08 00:15:42;;;;;;;8.43;4.28;;;2.50;99.90;;;;;;5030008;28;20040;-61
2021/12/08 00:18:10;;;;;;;10.68;4.85;;;2.50;99.90;;;;;;5022585;28;20044;-60
2021/12/08 00:20:38;;;;;;;9.32;4.32;;;2.50;99.90;;;;;;5049011;28;20051;-60
2021/12/08 00:23:06;;;;;;;10.93;4.85;;;2.50;99.90;;;;;;5052883;28;20057;-60
2021/12/08 00:25:33;;;;;;;12.23;5.00;;;2.50;99.90;;;;;;5045466;28;20041;-60
2021/12/08 00:27:59;;;;;;;9.43;4.95;;;2.60;99.90;;;;;;5049649;28;20045;-60
2021/12/08 00:30:27;;;;;;;12.40;4.82;;;2.60;99.90;;;;;;5062552;28;20102;-60
2021/12/08 00:32:55;;;;;;;9.65;4.68;;;2.60;99.90;;;;;;5044045;28;20640;-60
2021/12/08 00:35:23;;;;;;;13.18;5.00;;;2.60;99.90;;;;;;5043471;28;20049;-60
2021/12/08 00:37:48;;;;;;;10.75;4.90;;;2.60;99.90;;;;;;5046588;28;20040;-61
2021/12/08 00:40:17;;;;;;;12.05;5.28;;;2.70;99.90;;;;;;5030702;28;20052;-61
2021/12/08 00:42:45;;;;;;;9.30;4.75;;;2.60;99.90;;;;;;5043464;28;20631;-61
2021/12/08 00:45:14;;;;;;;13.95;5.72;;;2.70;99.90;;;;;;5043905;28;20040;-60
2021/12/08 00:47:40;;;;;;;15.70;5.40;;;2.70;99.90;;;;;;5029419;28;20044;-61
2021/12/08 00:50:09;;;;;;;10.32;4.88;;;2.70;99.90;;;;;;5016007;28;20060;-60
2021/12/08 00:52:35;;;;;;;14.38;5.60;;;2.70;99.90;;;;;;5047142;28;20123;-61
2021/12/08 00:55:05;;;;;;;11.80;5.68;;;2.70;99.90;;;;;;5043793;28;20072;-60
2021/12/08 00:57:31;;;;;;;11.88;5.57;;;2.70;99.90;;;;;;5044438;28;20041;-60
2021/12/08 00:59:57;;;;;;;19.30;5.70;;;2.70;99.90;;;;;;5030996;28;20087;-60
2021/12/08 01:02:22;;;;;;;15.77;5.80;;;2.80;99.90;;;;;;5043370;28;20048;-60
2021/12/08 01:04:48;;;;;;;9.43;4.78;;;2.80;99.90;;;;;;5047632;28;20048;-60
2021/12/08 01:07:14;;;;;;;13.93;5.30;;;2.80;99.90;;;;;;5026647;28;20135;-60
2021/12/08 01:09:40;;;;;;;14.23;5.40;;;2.80;99.90;;;;;;5047181;28;20048;-61
2021/12/08 01:12:06;;;;;;;13.38;5.53;;;2.80;99.90;;;;;;5049541;28;20480;-60
2021/12/08 01:14:34;;;;;;;15.13;5.85;;;2.80;99.90;;;;;;5043568;28;20861;-61
2021/12/08 01:17:02;;;;;;;11.52;5.07;;;2.80;99.90;;;;;;5031503;28;20626;-60
2021/12/08 01:19:28;;;;;;;14.75;5.28;;;2.90;99.90;;;;;;5050473;28;20040;-60
2021/12/08 01:21:54;;;;;;;12.75;5.07;;;2.90;99.90;;;;;;5048664;28;20045;-61
2021/12/08 01:24:20;;;;;;;12.15;4.93;;;2.90;99.90;;;;;;5043631;28;20369;-60
2021/12/08 01:26:47;;;;;;;16.67;5.45;;;2.90;99.90;;;;;;5028535;28;20307;-60
2021/12/08 01:29:13;;;;;;;10.32;5.15;;;2.90;99.90;;;;;;5013773;28;20503;-60
2021/12/08 01:31:41;;;;;;;11.50;5.30;;;2.90;99.90;;;;;;5046232;28;20076;-61
2021/12/08 01:34:12;;;;;;;10.68;5.43;;;2.90;99.90;;;;;;5045524;28;20522;-61
2021/12/08 01:36:39;;;;;;;12.20;5.20;;;3.00;99.90;;;;;;5045813;28;20441;-60
2021/12/08 01:39:07;;;;;;;11.43;5.43;;;3.00;99.90;;;;;;5010748;28;20062;-60
2021/12/08 01:41:34;;;;;;;12.77;5.45;;;3.00;99.90;;;;;;5042213;28;20114;-61
2021/12/08 01:46:55;;;;;;;11.07;4.93;;;3.10;99.90;;;;;;5011528;28;20145;-61
2021/12/08 01:49:22;;;;;;;9.25;5.07;;;3.00;99.90;;;;;;5020864;28;20084;-60
2021/12/08 01:51:48;;;;;;;14.60;5.20;;;3.10;99.90;;;;;;5044567;28;20052;-61
2021/12/08 01:54:14;;;;;;;9.07;4.70;;;3.10;99.90;;;;;;5025508;28;20047;-60
2021/12/08 01:56:41;;;;;;;10.52;4.60;;;3.20;99.90;;;;;;5043109;28;22159;-60
2021/12/08 01:59:09;;;;;;;10.65;5.10;;;3.20;99.90;;;;;;5046662;28;20048;-60
2021/12/08 02:01:39;;;;;;;10.38;5.15;;;3.20;99.90;;;;;;5033150;28;20110;-60
2021/12/08 02:04:06;;;;;;;8.02;4.88;;;3.30;99.90;;;;;;5043008;28;20441;-60
2021/12/08 02:06:39;;;;;;;12.77;5.50;;;3.30;99.90;;;;;;5049135;28;20045;-61
2021/12/08 02:09:09;;;;;;;12.15;5.55;;;3.30;99.90;;;;;;5045630;28;20491;-61
2021/12/08 02:11:36;;;;;;;11.60;5.38;;;3.30;99.90;;;;;;5047488;28;20048;-61
2021/12/08 02:14:03;;;;;;;11.43;5.10;;;3.30;99.90;;;;;;5046730;28;20044;-61
2021/12/08 02:16:30;;;;;;;8.98;5.25;;;3.30;99.90;;;;;;5049540;28;20398;-60
2021/12/08 02:18:56;;;;;;;8.43;5.05;;;3.40;99.90;;;;;;5049508;28;20109;-60
2021/12/08 02:21:35;;;;;;;12.57;5.80;;;3.40;99.90;;;;;;5049013;28;20941;-60
2021/12/08 02:24:04;;;;;;;11.38;5.28;;;3.40;99.90;;;;;;5046748;28;20045;-61
2021/12/08 02:26:31;;;;;;;8.77;5.22;;;3.50;99.90;;;;;;5047881;28;20110;-61
2021/12/08 02:29:02;;;;;;;11.10;6.30;;;3.40;99.90;;;;;;5046920;28;20048;-61
2021/12/08 02:31:38;;;;;;;14.80;6.28;;;3.40;99.90;;;;;;5049439;28;20053;-61
2021/12/08 02:47:55;;;;;;;10.90;5.72;;;3.50;99.90;;;;;;5054599;28;20045;-61
2021/12/08 02:50:28;;;;;;;11.93;5.63;;;3.50;99.90;;;;;;5053152;28;20052;-61
2021/12/08 02:52:56;;;;;;;10.32;5.53;;;3.50;99.90;;;;;;5018920;28;20135;-61
2021/12/08 02:55:21;;;;;;;7.93;5.72;;;3.50;99.90;;;;;;5067527;28;20079;-61
2021/12/08 02:57:47;;;;;;;13.48;5.90;;;3.50;99.90;;;;;;5037346;28;20087;-61
2021/12/08 03:00:17;;;;;;;7.80;5.10;;;3.50;99.90;;;;;;5038288;28;20059;-60
2021/12/08 03:02:43;;;;;;;10.70;6.13;;;3.50;99.90;;;;;;5052013;28;20091;-61
2021/12/08 03:05:10;;;;;;;11.63;5.72;;;3.50;99.90;;;;;;5047342;28;20080;-60
2021/12/08 03:07:37;;;;;;;11.38;6.00;;;3.50;99.90;;;;;;5048754;28;20049;-61
2021/12/08 03:10:16;;;;;;;10.32;5.65;;;3.50;99.90;;;;;;5028546;28;20495;-60
2021/12/08 03:12:42;;;;;;;11.48;5.63;;;3.50;99.90;;;;;;5049201;28;20057;-59
2021/12/08 03:15:10;;;;;;;9.30;5.63;;;3.50;99.90;;;;;;5044250;28;20064;-61
2021/12/08 03:17:36;;;;;;;12.63;6.28;;;3.50;99.90;;;;;;4998131;28;20042;-61
2021/12/08 03:20:06;;;;;;;12.80;6.00;;;3.50;99.90;;;;;;5034929;28;20415;-60
2021/12/08 03:22:36;;;;;;;11.35;6.88;;;3.50;99.90;;;;;;5048040;28;20063;-60
2021/12/08 03:25:05;;;;;;;11.98;6.70;;;3.50;99.90;;;;;;5046123;28;20044;-60
2021/12/08 03:27:36;;;;;;;11.82;6.60;;;3.50;99.90;;;;;;5048159;28;20573;-60
2021/12/08 03:30:15;;;;;;;9.25;6.40;;;3.60;99.90;;;;;;5023193;28;20550;-61
2021/12/08 03:32:41;;;;;;;14.02;7.10;;;3.60;99.90;;;;;;5048505;28;20040;-61
2021/12/08 03:35:11;;;;;;;9.85;6.95;;;3.60;99.90;;;;;;5029856;28;20073;-60
2021/12/08 03:37:41;;;;;;;13.88;7.20;;;3.60;99.90;;;;;;5046362;28;20040;-61
2021/12/08 03:40:14;;;;;;;10.95;7.68;;;3.60;99.90;;;;;;5028842;28;20052;-61
2021/12/08 03:42:41;;;;;;;10.63;7.57;;;3.60;99.90;;;;;;5036770;28;20044;-60
2021/12/08 03:45:14;;;;;;;11.50;7.53;;;3.60;99.90;;;;;;5013876;28;20067;-60
2021/12/08 03:47:46;;;;;;;16.27;7.93;;;3.60;99.90;;;;;;5046927;28;20052;-60
2021/12/08 03:50:15;;;;;;;12.75;8.10;;;3.60;99.90;;;;;;5054170;28;20102;-61
2021/12/08 03:52:42;;;;;;;16.55;8.75;;;3.60;99.90;;;;;;5051400;28;20049;-60
2021/12/08 03:55:13;;;;;;;14.90;8.60;;;3.70;99.90;;;;;;5045443;28;20048;-61
2021/12/08 03:57:39;;;;;;;12.10;8.98;;;3.70;99.90;;;;;;5047154;28;20047;-60
2021/12/08 04:00:10;;;;;;;15.05;8.48;;;3.80;99.90;;;;;;5048147;28;20586;-60
2021/12/08 04:02:35;;;;;;;13.60;8.90;;;3.70;99.90;;;;;;5045610;28;20106;-60
2021/12/08 04:05:03;;;;;;;15.38;9.45;;;3.80;99.90;;;;;;5052458;28;20044;-60
2021/12/08 04:07:31;;;;;;;13.52;9.75;;;3.90;99.90;;;;;;5031529;28;20047;-60
2021/12/08 04:09:57;;;;;;;17.48;9.80;;;3.80;99.90;;;;;;5029922;28;20056;-60
2021/12/08 04:12:23;;;;;;;20.23;9.93;;;3.80;99.90;;;;;;5045094;28;20084;-60
2021/12/08 04:15:01;;;;;;;19.10;10.60;;;3.80;99.90;;;;;;5044400;28;20136;-60
2021/12/08 04:17:35;;;;;;;14.30;10.25;;;3.90;99.90;;;;;;5029355;28;20430;-60
2021/12/08 04:20:06;;;;;;;18.27;10.60;;;3.90;99.90;;;;;;5047776;28;20049;-60
2021/12/08 04:22:38;;;;;;;16.38;10.55;;;3.90;99.90;;;;;;5027995;28;20537;-61
2021/12/08 04:25:08;;;;;;;20.25;12.23;;;3.90;99.90;;;;;;5013691;28;20048;-60
2021/12/08 04:27:37;;;;;;;14.77;10.90;;;3.90;99.90;;;;;;5047286;28;20491;-61
2021/12/08 04:30:07;;;;;;;20.02;10.85;;;3.90;99.90;;;;;;5049024;28;20510;-60
2021/12/08 04:32:33;;;;;;;16.70;11.80;;;3.90;99.90;;;;;;5045136;28;20055;-60
2021/12/08 04:35:00;;;;;;;17.17;12.43;;;3.90;99.90;;;;;;5029067;28;20159;-60
2021/12/08 04:37:34;;;;;;;16.23;11.65;;;4.00;99.90;;;;;;5045237;28;20613;-60
2021/12/08 04:45:21;;;;;;;18.87;11.27;;;4.10;99.90;;;;;;5046875;28;20055;-60
2021/12/08 04:48:06;;;;;;;17.08;11.55;;;4.10;99.90;;;;;;5045586;28;20129;-60
2021/12/08 04:53:11;;;;;;;20.25;11.90;;;4.10;99.90;;;;;;5044127;28;20521;-61
2021/12/08 05:01:26;;;;;;;19.42;12.75;;;4.20;99.90;;;;;;5034860;28;20049;-61
2021/12/08 05:09:29;;;;;;;20.70;12.93;;;4.20;99.90;;;;;;5034362;28;20049;-60
2021/12/08 05:12:08;;;;;;;17.48;12.77;;;4.20;99.90;;;;;;5051025;28;20067;-60
2021/12/08 05:14:42;;;;;;;16.42;11.80;;;4.30;99.90;;;;;;5029992;28;20060;-61
2021/12/08 05:17:14;;;;;;;20.67;12.05;;;4.30;99.90;;;;;;5047286;28;20576;-60
2021/12/08 05:19:42;;;;;;;17.75;11.90;;;4.30;99.90;;;;;;5045572;28;20044;-61
2021/12/08 05:22:15;;;;;;;18.05;12.15;;;4.30;99.90;;;;;;5044314;28;20130;-60
2021/12/08 05:24:45;;;;;;;19.70;12.88;;;4.30;99.90;;;;;;5046587;28;20381;-61
2021/12/08 05:27:21;;;;;;;18.48;12.63;;;4.40;99.90;;;;;;5035059;28;20103;-60
2021/12/08 05:29:53;;;;;;;19.13;12.50;;;4.40;99.90;;;;;;5046548;28;20090;-60
2021/12/08 05:32:19;;;;;;;17.00;12.60;;;4.40;99.90;;;;;;5047016;28;20055;-61
2021/12/08 05:34:45;;;;;;;21.77;12.25;;;4.40;99.90;;;;;;5032257;28;20124;-60
2021/12/08 05:37:14;;;;;;;21.08;13.18;;;4.40;99.90;;;;;;5048186;28;20051;-61
2021/12/08 05:39:40;;;;;;;16.02;12.70;;;4.50;99.90;;;;;;5045879;28;20052;-60
2021/12/08 05:42:11;;;;;;;20.10;12.27;;;4.50;99.90;;;;;;5026690;28;20510;-60
2021/12/08 05:44:38;;;;;;;21.33;12.82;;;4.50;99.90;;;;;;5045923;28;20064;-60
2021/12/08 05:47:08;;;;;;;22.75;12.88;;;4.50;99.90;;;;;;5049557;28;20055;-60
2021/12/08 05:49:35;;;;;;;17.25;12.75;;;4.60;99.90;;;;;;5050561;28;20087;-61
2021/12/08 05:52:02;;;;;;;21.55;12.73;;;4.60;99.90;;;;;;5051171;28;22072;-60
2021/12/08 05:54:32;;;;;;;19.08;11.68;;;4.60;99.90;;;;;;5048203;28;20048;-60
2021/12/08 05:57:11;;;;;;;18.85;11.90;;;4.60;99.90;;;;;;5047028;28;20047;-60
2021/12/08 05:59:39;;;;;;;20.17;11.63;;;4.70;99.90;;;;;;5051063;28;20044;-60
2021/12/08 06:02:22;;;;;;;19.80;11.18;;;4.70;99.90;;;;;;5049326;28;20610;-60
2021/12/08 06:04:48;;;;;;;16.13;11.38;;;4.80;99.90;;;;;;5043882;28;20091;-60
2021/12/08 06:07:15;;;;;;;18.55;11.40;;;4.80;99.90;;;;;;5045959;28;20056;-60
2021/12/08 06:09:42;;;;;;;16.30;10.50;;;4.80;99.90;;;;;;5018890;28;20052;-61
2021/12/08 06:12:09;;;;;;;16.40;10.27;;;4.90;99.90;;;;;;5032604;28;20103;-61
2021/12/08 06:14:37;;;;;;;17.77;9.90;;;4.80;99.90;;;;;;5019961;28;20040;-60
2021/12/08 06:17:08;;;;;;;15.82;10.68;;;4.90;99.90;;;;;;5046462;28;20048;-60
2021/12/08 06:19:36;;;;;;;15.23;10.15;;;4.90;99.90;;;;;;5046925;28;20132;-61
2021/12/08 06:22:05;;;;;;;20.27;11.60;;;4.90;99.90;;;;;;5049737;28;20082;-61
2021/12/08 06:24:32;;;;;;;16.52;10.73;;;5.00;99.90;;;;;;5015003;28;20049;-60
2021/12/08 06:26:57;;;;;;;18.05;11.15;;;4.90;99.90;;;;;;5050712;28;20080;-60
2021/12/08 06:29:24;;;;;;;16.88;10.52;;;5.00;99.90;;;;;;5048530;28;20131;-60
2021/12/08 06:31:53;;;;;;;14.73;9.82;;;5.00;99.90;;;;;;5049680;28;20435;-60
2021/12/08 06:34:21;;;;;;;17.98;10.15;;;5.00;99.90;;;;;;5052446;28;20532;-61
2021/12/08 06:36:52;;;;;;;15.80;10.40;;;5.00;99.90;;;;;;5052533;28;20033;-60
2021/12/08 06:39:27;;;;;;;15.63;10.15;;;5.00;99.90;;;;;;5023809;28;20514;-61
2021/12/08 06:41:58;;;;;;;15.70;10.02;;;5.00;99.90;;;;;;5051241;28;20044;-60
2021/12/08 06:44:28;;;;;;;14.52;9.68;;;5.00;99.90;;;;;;5054001;28;20049;-61
2021/12/08 06:46:56;;;;;;;21.17;9.38;;;5.00;99.90;;;;;;5034800;28;20048;-60
2021/12/08 06:49:23;;;;;;;17.10;9.88;;;5.10;99.90;;;;;;5051252;28;20055;-60
2021/12/08 06:52:05;;;;;;;16.88;9.52;;;5.10;99.90;;;;;;5053992;28;20060;-60
2021/12/08 06:54:37;;;;;;;15.50;9.40;;;5.10;99.90;;;;;;5047815;28;20115;-61
2021/12/08 06:57:09;;;;;;;17.67;8.63;;;5.10;99.90;;;;;;5036454;28;20044;-61
2021/12/08 06:59:50;;;;;;;12.57;8.80;;;5.10;99.90;;;;;;5054402;28;20037;-60
2021/12/08 07:02:32;;;;;;;15.00;8.80;;;5.10;99.90;;;;;;5051744;28;20075;-60
2021/12/08 07:07:34;;;;;;;14.68;7.88;;;5.10;99.90;;;;;;5037952;28;20401;-60
2021/12/08 07:10:05;;;;;;;13.98;8.55;;;5.10;99.90;;;;;;5034891;28;20060;-60
2021/12/08 07:12:38;;;;;;;15.82;8.63;;;5.10;99.90;;;;;;5041760;28;20167;-60
2021/12/08 07:15:08;;;;;;;;;;;5.00;99.90;;;;;;5049736;28;20033;-60
2021/12/08 07:17:37;;;;;;;13.23;7.60;;;5.00;99.90;;;;;;5052293;28;19931;-60
2021/12/08 07:20:28;;;;;;;14.63;8.30;;;5.00;99.90;;;;;;5052643;28;20048;-61
2021/12/08 07:22:57;;;;;;;10.57;6.82;;;4.90;99.90;;;;;;5053154;28;20080;-60
2021/12/08 07:25:26;;;;;;;17.17;7.53;;;4.90;99.90;;;;;;5051178;28;20067;-60
2021/12/08 07:27:53;;;;;;;17.52;7.80;;;4.90;99.90;;;;;;5052133;28;20080;-60
2021/12/08 07:30:35;;;;;;;10.70;7.38;;;4.80;99.90;;;;;;5053750;28;20042;-60
2021/12/08 07:33:01;;;;;;;15.52;8.23;;;4.90;99.90;;;;;;5068736;28;20037;-60
2021/12/08 07:35:37;;;;;;;12.93;7.50;;;4.80;99.90;;;;;;5037239;28;20450;-60
2021/12/08 07:38:06;;;;;;;11.82;6.95;;;4.80;99.90;;;;;;5051714;28;20529;-60
2021/12/08 07:40:43;;;;;;;10.50;6.72;;;4.80;99.90;;;;;;5050092;28;20049;-61
2021/12/08 07:43:13;;;;;;;11.55;6.60;;;4.80;99.90;;;;;;5052931;28;20049;-60
2021/12/08 07:45:49;;;;;;;11.38;6.45;;;4.80;99.90;;;;;;5047099;28;20037;-60
2021/12/08 07:48:23;;;;;;;13.60;6.97;;;4.80;99.90;;;;;;5049120;28;20036;-61
2021/12/08 07:50:56;;;;;;;11.65;6.47;;;4.80;99.90;;;;;;5048707;28;20076;-61
2021/12/08 07:53:25;;;;;;;15.25;6.50;;;4.80;99.90;;;;;;5047633;28;20067;-61
2021/12/08 07:55:58;;;;;;;12.20;5.70;;;4.70;99.90;;;;;;5049948;28;20105;-60
2021/12/08 07:58:24;;;;;;;12.23;5.65;;;4.70;99.90;;;;;;5045869;28;22146;-60
2021/12/08 08:00:54;;;;;;;9.68;5.13;;;4.70;99.90;;;;;;5049573;28;20040;-60
2021/12/08 08:03:22;;;;;;;9.05;5.28;;;4.70;99.90;;;;;;5033762;28;20079;-60
2021/12/08 08:05:50;;;;;;;11.95;5.18;;;4.70;99.90;;;;;;5047394;28;20036;-60
2021/12/08 08:08:18;;;;;;;12.82;5.20;;;4.70;99.90;;;;;;5045311;28;20041;-60
2021/12/08 08:10:49;;;;;;;12.07;4.50;;;4.70;99.90;;;;;;5031099;28;20689;-60
2021/12/08 08:13:17;;;;;;;13.68;4.75;;;4.70;99.90;;;;;;5031048;28;20078;-61
2021/12/08 08:15:48;;;;;;;8.85;4.32;;;4.80;99.90;;;;;;5030335;28;20033;-60
2021/12/08 08:18:18;;;;;;;10.02;3.70;;;4.70;99.90;;;;;;5046695;28;20546;-60
2021/12/08 08:20:49;;;;;;;7.90;3.58;;;4.80;99.90;;;;;;5047447;28;20484;-61
2021/12/08 08:23:21;;;;;;;12.05;4.88;;;4.80;99.90;;;;;;5030712;28;20430;-61
2021/12/08 08:25:49;;;;;;;6.50;3.85;;;4.80;99.90;;;;;;5046525;28;20045;-61
2021/12/08 08:28:19;;;;;;;8.73;3.75;;;4.80;99.90;;;;;;5050253;28;20048;-60
2021/12/08 08:30:52;;;;;;;9.43;3.92;;;4.80;99.90;;;;;;5052121;28;20041;-60
2021/12/08 08:33:18;;;;;;;11.00;3.72;;;4.80;99.90;;;;;;5011458;28;20075;-61
2021/12/08 08:35:54;;;;;;;8.57;3.72;;;4.90;99.90;;;;;;5047235;28;20067;-61
2021/12/08 08:38:28;;;;;;;10.85;3.70;;;4.90;99.90;;;;;;5047316;28;20048;-60
2021/12/08 08:40:58;;;;;;;10.02;3.80;;;4.90;99.90;;;;;;5046560;28;20087;-60
2021/12/08 08:43:25;;;;;;;9.02;3.78;;;4.90;99.90;;;;;;5033828;28;20060;-60
2021/12/08 08:45:59;;;;;;;9.75;3.60;;;5.00;99.90;;;;;;5047801;28;20495;-60
2021/12/08 08:48:30;;;;;;;8.43;3.92;;;4.90;99.90;;;;;;5044390;28;20056;-60
2021/12/08 08:51:01;;;;;;;10.55;4.05;;;5.00;99.90;;;;;;5042598;28;20095;-61
2021/12/08 08:53:30;;;;;;;9.80;3.58;;;4.90;99.90;;;;;;5046568;28;20102;-61
2021/12/08 08:56:25;;;;;;;12.68;3.63;;;5.00;99.90;;;;;;5027970;28;20399;-61
2021/12/08 08:58:56;;;;;;;10.90;4.03;;;5.00;99.90;;;;;;5046544;28;20057;-60
2021/12/08 09:01:27;;;;;;;9.32;3.22;;;5.00;99.90;;;;;;5031325;28;20054;-61
2021/12/08 09:03:56;;;;;;;8.52;3.40;;;5.00;99.90;;;;;;5043447;28;20049;-61
2021/12/08 09:06:27;;;;;;;8.07;3.70;;;5.00;99.90;;;;;;5047653;28;20064;-61
2021/12/08 09:08:54;;;;;;;10.30;3.33;;;5.10;99.90;;;;;;5047196;28;20045;-60
2021/12/08 09:11:25;;;;;;;13.25;3.95;;;5.10;99.90;;;;;;5045464;28;20534;-60
2021/12/08 09:14:10;;;;;;;11.00;3.50;;;5.10;99.90;;;;;;5043941;28;20044;-61
2021/12/08 09:16:42;;;;;;;10.07;3.08;;;5.10;99.90;;;;;;5032704;28;20513;-60
2021/12/08 09:19:13;;;;;;;15.10;3.30;;;5.10;99.90;;;;;;5046184;28;20561;-60
2021/12/08 09:21:59;;;;;;;11.75;2.78;;;5.20;99.90;;;;;;5044875;28;20074;-60
2021/12/08 09:24:50;;;;;;;8.50;2.90;;;5.20;99.90;;;;;;5046526;28;20462;-60
2021/12/08 09:27:21;;;;;;;10.95;3.33;;;5.20;99.90;;;;;;5002648;28;20120;-60
2021/12/08 09:30:00;;;;;;;6.65;3.10;;;5.20;99.90;;;;;;5045598;28;20523;-60
2021/12/08 09:32:39;;;;;;;12.57;2.92;;;5.20;99.90;;;;;;5050951;28;20575;-61
2021/12/08 09:35:31;;;;;;;8.93;2.95;;;5.20;99.90;;;;;;5045301;28;20049;-61
2021/12/08 09:38:12;;;;;;;11.45;3.05;;;5.20;99.90;;;;;;5048248;28;20391;-61
2021/12/08 09:40:49;;;;;;;10.68;2.90;;;5.20;99.90;;;;;;5044792;28;20053;-60
2021/12/08 09:43:24;;;;;;;9.07;2.55;;;5.20;99.90;;;;;;5044564;28;20088;-61
2021/12/08 09:45:58;;;;;;;7.97;2.60;;;5.20;99.90;;;;;;5045779;28;20041;-60
2021/12/08 09:48:27;;;;;;;7.43;3.00;;;5.20;99.90;;;;;;5046506;28;20061;-61
2021/12/08 09:50:55;;;;;;;11.25;3.00;;;5.20;99.90;;;;;;5044311;28;20504;-59
2021/12/08 09:53:20;;;;;;;10.27;3.15;;;5.20;99.90;;;;;;5043678;28;20143;-61
2021/12/08 09:55:49;;;;;;;11.57;2.63;;;5.20;99.90;;;;;;5045651;28;20041;-60
2021/12/08 09:58:15;;;;;;;10.43;2.80;;;5.30;99.90;;;;;;5044543;28;20048;-60
2021/12/08 10:00:44;;;;;;;9.48;3.00;;;5.30;99.90;;;;;;5045491;28;20128;-60
2021/12/08 10:03:13;;;;;;;10.40;2.70;;;5.40;99.90;;;;;;5047206;28;20041;-61
2021/12/08 10:05:41;;;;;;;12.45;3.08;;;5.50;99.90;;;;;;5042334;28;20100;-60
2021/12/08 10:08:09;;;;;;;13.88;2.80;;;5.50;99.90;;;;;;5027335;28;20044;-60
2021/12/08 10:10:36;;;;;;;10.52;2.78;;;5.50;99.90;;;;;;5049332;28;20044;-60
2021/12/08 10:13:03;;;;;;;11.38;3.00;;;5.60;99.90;;;;;;5048084;28;20458;-60
2021/12/08 10:15:29;;;;;;;8.77;3.10;;;5.60;99.90;;;;;;5045020;28;20044;-60
2021/12/08 10:17:58;;;;;;;17.75;3.65;;;5.70;99.90;;;;;;5047462;28;20067;-60
2021/12/08 10:20:32;;;;;;;11.82;2.75;;;5.70;99.90;;;;;;5050110;28;20049;-60
2021/12/08 10:23:13;;;;;;;13.45;3.08;;;5.80;99.90;;;;;;5050767;28;20141;-61
2021/12/08 10:25:44;;;;;;;13.20;2.90;;;5.90;99.90;;;;;;5046550;28;20121;-60
2021/12/08 10:28:17;;;;;;;10.18;3.20;;;6.00;99.90;;;;;;5048329;28;20123;-60
2021/12/08 10:31:19;;;;;;;10.73;3.45;;;6.00;99.90;;;;;;5020329;28;20136;-60
2021/12/08 10:34:01;;;;;;;12.65;2.95;;;6.10;99.90;;;;;;5051700;28;20069;-60
2021/12/08 10:39:16;;;;;;;7.97;2.90;;;6.20;99.90;;;;;;5054234;28;20047;-61
2021/12/08 10:42:04;;;;;;;6.97;2.53;;;6.30;99.90;;;;;;5051454;28;20517;-60
2021/12/08 10:44:57;;;;;;;13.90;3.10;;;6.40;99.90;;;;;;5045798;28;20597;-60
2021/12/08 10:47:36;;;;;;;10.75;2.88;;;6.50;99.90;;;;;;5048031;28;20052;-60
2021/12/08 10:55:39;;;;;;;14.80;3.40;;;6.60;99.90;;;;;;5032204;28;20044;-61
2021/12/08 10:58:07;;;;;;;15.27;3.40;;;6.50;99.90;;;;;;5017659;28;20681;-60
2021/12/08 11:00:39;;;;;;;16.92;3.28;;;6.50;99.90;;;;;;5033101;28;20033;-60
2021/12/08 11:03:12;;;;;;;11.13;3.30;;;6.40;99.90;;;;;;5025902;28;20059;-60
2021/12/08 11:05:40;;;;;;;;;;;6.50;99.90;;;;;;5022892;28;20045;-61
2021/12/08 11:08:20;;;;;;;8.80;2.60;;;6.50;99.90;;;;;;5046395;28;19944;-61
2021/12/08 11:10:54;;;;;;;10.20;3.10;;;6.50;99.90;;;;;;5046458;28;20402;-60
2021/12/08 11:13:27;;;;;;;7.55;2.65;;;6.50;99.90;;;;;;5043132;28;20056;-61
2021/12/08 11:16:11;;;;;;;10.05;3.05;;;6.50;99.90;;;;;;5033328;28;20135;-60
2021/12/08 11:18:39;;;;;;;10.93;2.75;;;6.50;99.90;;;;;;5048751;28;20391;-60
2021/12/08 11:21:31;;;;;;;10.50;2.95;;;6.50;99.90;;;;;;5046429;28;20037;-60
2021/12/08 11:23:59;;;;;;;9.43;2.88;;;6.50;99.90;;;;;;5020796;28;20120;-60
2021/12/08 11:26:37;;;;;;;9.90;2.65;;;6.40;99.90;;;;;;5011850;28;20041;-62
2021/12/08 11:29:18;;;;;;;10.98;2.75;;;6.40;99.90;;;;;;5049512;28;20072;-60
2021/12/08 11:31:47;;;;;;;9.48;2.58;;;6.40;99.90;;;;;;5049403;28;20510;-61
2021/12/08 11:34:25;;;;;;;12.98;2.75;;;6.40;99.90;;;;;;5048462;28;20646;-61
2021/12/08 11:36:53;;;;;;;10.18;3.03;;;6.40;99.90;;;;;;5027032;28;20534;-60
2021/12/08 11:39:27;;;;;;;10.05;2.60;;;6.40;99.90;;;;;;5049880;28;20049;-60
2021/12/08 11:42:00;;;;;;;14.10;3.10;;;6.30;99.90;;;;;;5041172;28;20784;-61
2021/12/08 11:44:37;;;;;;;12.27;2.97;;;6.30;99.90;;;;;;4992675;28;20464;-61
2021/12/08 14:26:37;;;;;;;9.40;3.30;;;5.60;99.90;;;;;;4799148;27;8287674;-61
2021/12/08 14:29:33;;;;;;;6.35;3.10;;;5.70;99.90;;;;;;5073982;28;20551;-61
2021/12/08 14:32:30;;;;;;;12.48;3.42;;;5.60;99.90;;;;;;5079150;28;20090;-60
2021/12/08 14:35:28;;;;;;;11.55;3.30;;;5.60;99.90;;;;;;5065339;28;20495;-61
2021/12/08 14:38:26;;;;;;;11.20;3.35;;;5.50;99.90;;;;;;5065407;28;20044;-61
2021/12/08 14:41:28;;;;;;;13.52;3.55;;;5.50;99.90;;;;;;5074077;28;20044;-61
2021/12/08 14:44:29;;;;;;;10.98;3.22;;;5.50;99.90;;;;;;5084091;28;20051;-61
2021/12/08 14:47:52;;;;;;;11.43;3.13;;;5.40;99.90;;;;;;5085771;28;20430;-61
2021/12/08 14:50:23;;;;;;;9.15;3.08;;;5.40;99.90;;;;;;5082297;28;20494;-61
2021/12/08 14:52:50;;;;;;;12.10;3.40;;;5.40;99.90;;;;;;5080593;28;20048;-61
2021/12/08 14:55:21;;;;;;;9.02;2.95;;;5.30;99.90;;;;;;5049996;28;20047;-61
2021/12/08 14:57:51;;;;;;;9.63;3.10;;;5.30;99.90;;;;;;5079056;28;20051;-61
2021/12/08 15:00:29;;;;;;;8.35;3.10;;;5.30;99.90;;;;;;5097608;28;20562;-61
2021/12/08 15:03:14;;;;;;;8.77;2.95;;;5.30;99.90;;;;;;5083798;28;20036;-61
2021/12/08 15:05:45;;;;;;;11.88;2.90;;;5.30;99.90;;;;;;5080981;28;20051;-61
2021/12/08 15:08:21;;;;;;;7.53;2.97;;;5.20;99.90;;;;;;5084330;28;20044;-60
2021/12/08 15:10:48;;;;;;;11.57;3.60;;;5.20;99.90;;;;;;5066138;28;20044;-61
2021/12/08 15:13:30;;;;;;;7.72;2.95;;;5.20;99.90;;;;;;5085738;28;20047;-61
2021/12/08 15:15:56;;;;;;;10.65;3.30;;;5.20;99.90;;;;;;5080117;28;20137;-61
2021/12/08 15:18:25;;;;;;;8.30;3.22;;;5.10;99.90;;;;;;5056028;28;20071;-61
2021/12/08 15:21:00;;;;;;;9.40;2.90;;;5.00;99.90;;;;;;5060640;28;20052;-61
2021/12/08 15:23:45;;;;;;;6.47;2.83;;;5.00;99.90;;;;;;5059356;28;20115;-61
2021/12/08 15:26:15;;;;;;;14.85;3.33;;;5.00;99.90;;;;;;5067379;28;20051;-61
2021/12/08 15:28:43;;;;;;;9.15;3.10;;;5.00;99.90;;;;;;5061589;28;20059;-61
2021/12/08 15:31:11;;;;;;;8.82;2.58;;;4.90;99.90;;;;;;5045054;28;20087;-61
2021/12/08 15:33:38;;;;;;;6.93;2.85;;;4.90;99.90;;;;;;5026787;28;20490;-61
2021/12/08 15:36:14;;;;;;;15.65;3.35;;;4.90;99.90;;;;;;5042199;28;20037;-61
2021/12/08 15:38:44;;;;;;;8.20;3.13;;;4.80;99.90;;;;;;5044887;28;20083;-61
2021/12/08 15:41:14;;;;;;;11.65;3.80;;;4.80;99.90;;;;;;5062320;28;20041;-61
2021/12/08 15:43:40;;;;;;;9.98;3.10;;;4.80;99.90;;;;;;5063120;28;20546;-61
2021/12/08 15:46:09;;;;;;;6.85;3.10;;;4.70;99.90;;;;;;5028634;28;20506;-61
2021/12/08 15:48:36;;;;;;;8.82;3.42;;;4.70;99.90;;;;;;5044273;28;20067;-61
2021/12/08 15:51:07;;;;;;;6.68;3.10;;;4.70;99.90;;;;;;5061918;28;20047;-61
2021/12/08 15:53:41;;;;;;;5.63;3.08;;;4.70;99.90;;;;;;5043773;28;20403;-61
2021/12/08 15:56:12;;;;;;;8.20;2.80;;;4.60;99.90;;;;;;5028895;28;20114;-60
2021/12/08 15:58:50;;;;;;;8.27;3.05;;;4.60;99.90;;;;;;5040331;28;20060;-61
2021/12/08 16:01:23;;;;;;;8.48;3.22;;;4.60;99.90;;;;;;5034269;28;20517;-61
2021/12/08 16:03:56;;;;;;;6.95;3.38;;;4.60;99.90;;;;;;5044099;28;20105;-61
2021/12/08 16:06:22;;;;;;;11.35;3.28;;;4.50;99.90;;;;;;5043549;28;20498;-61
2021/12/08 16:08:50;;;;;;;15.23;3.55;;;4.50;99.90;;;;;;5044763;28;20045;-61
2021/12/08 16:11:34;;;;;;;9.38;3.15;;;4.40;99.90;;;;;;5043764;28;20091;-61
2021/12/08 16:14:21;;;;;;;10.25;3.10;;;4.40;99.90;;;;;;5043948;28;20044;-61
2021/12/08 16:16:50;;;;;;;8.18;3.13;;;4.40;99.90;;;;;;5043251;28;20395;-61
2021/12/08 16:19:19;;;;;;;8.55;3.10;;;4.40;99.90;;;;;;5043651;28;20048;-61
2021/12/08 16:21:45;;;;;;;10.95;3.50;;;4.40;99.90;;;;;;5040304;28;20507;-60
2021/12/08 16:24:11;;;;;;;11.05;3.88;;;4.40;99.90;;;;;;5057779;28;20075;-60
2021/12/08 16:26:56;;;;;;;10.18;3.30;;;4.30;99.90;;;;;;5040802;28;20045;-60
2021/12/08 16:29:26;;;;;;;12.13;3.53;;;4.30;99.90;;;;;;5048594;28;20446;-58
2021/12/08 16:31:54;;;;;;;9.23;3.60;;;4.30;99.90;;;;;;5037716;28;20659;-58
2021/12/08 16:34:21;;;;;;;8.18;3.60;;;4.30;99.90;;;;;;5037767;28;20041;-60
2021/12/08 16:36:48;;;;;;;10.38;3.42;;;4.30;99.90;;;;;;5038492;28;20099;-59